Time;durP1;ratioP1;P1;durP2;ratioP2;P2;SDS_P1;SDS_P2;PMS_P1;PMS_P2;Temp;Humidity;BMP_temperature;BMP_pressure;BME280_temperature;BME280_humidity;BME280_pressure;Samples;Min_cycle;Max_cycle;Signal;HPM_P1;HPM_P2
2021/11/15 00:00:52;;;;;;;15.38;10.98;;;10.20;99.90;;;;;;5108196;28;20051;-43
2021/11/15 00:03:22;;;;;;;13.52;10.63;;;10.10;99.90;;;;;;5109106;28;20521;-43
2021/11/15 00:05:48;;;;;;;15.75;12.07;;;10.20;99.90;;;;;;5108140;28;20032;-45
2021/11/15 00:08:14;;;;;;;16.00;11.93;;;10.20;99.90;;;;;;5109316;28;20031;-43
2021/11/15 00:10:40;;;;;;;16.05;12.00;;;10.20;99.90;;;;;;5108908;28;20039;-43
2021/11/15 00:13:07;;;;;;;17.60;12.68;;;10.10;99.90;;;;;;5107833;28;20030;-42
2021/11/15 00:15:33;;;;;;;15.80;12.07;;;10.10;99.90;;;;;;5108169;28;20055;-42
2021/11/15 00:17:59;;;;;;;14.27;11.50;;;10.10;99.90;;;;;;5108626;28;20563;-42
2021/11/15 00:20:26;;;;;;;16.35;12.65;;;10.10;99.90;;;;;;5107609;28;20034;-42
2021/11/15 00:22:52;;;;;;;17.77;13.55;;;10.10;99.90;;;;;;5108432;28;20053;-43
2021/11/15 00:25:18;;;;;;;19.42;13.07;;;10.10;99.90;;;;;;5108147;28;20060;-43
2021/11/15 00:27:43;;;;;;;11.95;10.13;;;10.10;99.90;;;;;;5107898;28;20019;-42
2021/11/15 00:30:11;;;;;;;18.00;13.32;;;10.10;99.90;;;;;;5107746;27;20031;-42
2021/11/15 00:32:37;;;;;;;17.83;12.35;;;10.10;99.90;;;;;;5108651;28;20482;-42
2021/11/15 00:35:04;;;;;;;16.13;11.85;;;10.10;99.90;;;;;;5107236;28;20039;-43
2021/11/15 00:37:29;;;;;;;16.70;13.07;;;10.10;99.90;;;;;;5108002;28;20020;-43
2021/11/15 00:39:55;;;;;;;17.08;13.05;;;10.10;99.90;;;;;;5108459;28;20115;-43
2021/11/15 00:42:21;;;;;;;16.60;12.57;;;10.10;99.90;;;;;;5107469;28;20467;-43
2021/11/15 00:44:52;;;;;;;18.42;13.18;;;10.10;99.90;;;;;;5108096;28;20020;-43
2021/11/15 00:47:18;;;;;;;18.33;13.18;;;10.10;99.90;;;;;;5108328;28;20036;-42
2021/11/15 00:49:49;;;;;;;18.73;13.75;;;10.10;99.90;;;;;;5107191;28;20047;-41
2021/11/15 00:52:15;;;;;;;19.15;13.40;;;10.10;99.90;;;;;;5107898;28;20055;-41
2021/11/15 00:54:41;;;;;;;18.20;12.98;;;10.10;99.90;;;;;;5107793;28;20596;-42
2021/11/15 00:57:06;;;;;;;20.15;14.43;;;10.10;99.90;;;;;;5106694;28;20024;-43
2021/11/15 00:59:35;;;;;;;19.95;14.50;;;10.00;99.90;;;;;;5108314;28;20530;-42
2021/11/15 01:02:04;;;;;;;18.15;12.98;;;10.00;99.90;;;;;;5106399;28;20095;-42
2021/11/15 01:04:30;;;;;;;19.33;14.13;;;10.00;99.90;;;;;;5106999;28;20034;-42
2021/11/15 01:06:56;;;;;;;18.75;13.32;;;10.00;99.90;;;;;;5107505;28;20019;-43
2021/11/15 01:09:23;;;;;;;17.30;12.32;;;9.90;99.90;;;;;;5106969;28;20041;-42
2021/11/15 01:11:50;;;;;;;17.83;12.45;;;9.90;99.90;;;;;;5107343;28;20053;-42
2021/11/15 01:14:16;;;;;;;19.30;13.45;;;10.00;99.90;;;;;;5107622;28;20034;-42
2021/11/15 01:16:42;;;;;;;19.17;14.02;;;9.90;99.90;;;;;;5106327;28;20019;-42
2021/11/15 01:19:08;;;;;;;15.73;12.38;;;9.90;99.90;;;;;;5107523;28;20414;-42
2021/11/15 01:21:33;;;;;;;18.60;13.23;;;9.90;99.90;;;;;;5107039;28;20015;-43
2021/11/15 01:23:59;;;;;;;16.85;12.98;;;9.90;99.90;;;;;;5106512;28;20034;-43
2021/11/15 01:26:25;;;;;;;18.35;13.48;;;9.80;99.90;;;;;;5107307;28;20044;-43
2021/11/15 01:28:54;;;;;;;18.40;13.52;;;9.80;99.90;;;;;;5107295;28;20044;-43
2021/11/15 01:31:20;;;;;;;19.45;14.32;;;9.80;99.90;;;;;;5107135;28;20019;-43
2021/11/15 01:33:46;;;;;;;17.38;13.75;;;9.80;99.90;;;;;;5107290;28;20030;-43
2021/11/15 01:36:12;;;;;;;16.30;12.52;;;9.80;99.90;;;;;;5107085;28;20019;-43
2021/11/15 01:38:38;;;;;;;17.80;13.50;;;9.80;99.90;;;;;;5105380;28;20044;-43
2021/11/15 01:41:07;;;;;;;20.02;14.18;;;9.80;99.90;;;;;;5107252;28;20455;-43
2021/11/15 01:43:34;;;;;;;18.50;14.40;;;9.70;99.90;;;;;;5106658;28;20386;-42
2021/11/15 01:46:00;;;;;;;21.38;15.73;;;9.70;99.90;;;;;;5106172;28;20023;-42
2021/11/15 01:48:27;;;;;;;18.17;14.15;;;9.70;99.90;;;;;;5107073;28;20024;-42
2021/11/15 01:50:53;;;;;;;17.30;13.43;;;9.70;99.90;;;;;;5106726;28;20024;-42
2021/11/15 01:53:19;;;;;;;19.58;13.50;;;9.70;99.90;;;;;;5106735;28;20095;-43
2021/11/15 01:55:45;;;;;;;20.08;15.18;;;9.70;99.90;;;;;;5107211;28;20023;-42
2021/11/15 01:58:14;;;;;;;19.65;14.52;;;9.70;99.90;;;;;;5106671;28;20024;-42
2021/11/15 02:00:40;;;;;;;18.60;13.13;;;9.70;99.90;;;;;;5106606;28;20034;-42
2021/11/15 02:03:05;;;;;;;17.90;13.80;;;9.70;99.90;;;;;;5106105;28;20027;-42
2021/11/15 02:05:34;;;;;;;22.35;15.43;;;9.70;99.90;;;;;;5106192;28;20035;-42
2021/11/15 02:08:01;;;;;;;20.17;14.35;;;9.60;99.90;;;;;;5107049;28;20023;-42
2021/11/15 02:10:26;;;;;;;22.63;15.80;;;9.60;99.90;;;;;;5106829;28;20036;-42
2021/11/15 02:12:52;;;;;;;21.25;15.02;;;9.60;99.90;;;;;;5106118;28;20637;-42
2021/11/15 02:15:21;;;;;;;24.05;15.70;;;9.60;99.90;;;;;;5106411;28;20141;-42
2021/11/15 02:17:48;;;;;;;21.52;15.55;;;9.60;99.90;;;;;;5110341;28;20391;-42
2021/11/15 02:20:45;;;;;;;21.85;16.00;;;9.60;99.90;;;;;;5110051;28;20036;-42
2021/11/15 02:23:11;;;;;;;24.35;17.17;;;9.60;99.90;;;;;;5089406;28;20089;-42
2021/11/15 02:25:38;;;;;;;21.33;16.05;;;9.60;99.90;;;;;;5110540;28;20030;-42
2021/11/15 02:28:05;;;;;;;21.08;15.98;;;9.60;99.90;;;;;;5110323;27;20112;-42
2021/11/15 02:30:30;;;;;;;17.98;14.02;;;9.60;99.90;;;;;;5110744;28;20132;-42
2021/11/15 02:32:56;;;;;;;21.08;14.90;;;9.50;99.90;;;;;;5110855;28;20062;-42
2021/11/15 02:35:24;;;;;;;19.80;15.40;;;9.60;99.90;;;;;;5109697;28;20144;-43
2021/11/15 02:37:50;;;;;;;24.70;17.65;;;9.60;99.90;;;;;;5110812;28;20023;-42
2021/11/15 02:40:21;;;;;;;26.17;17.65;;;9.50;99.90;;;;;;5110411;28;20027;-43
2021/11/15 02:42:47;;;;;;;27.10;17.60;;;9.60;99.90;;;;;;5109903;28;20027;-43
2021/11/15 02:45:14;;;;;;;26.02;19.00;;;9.50;99.90;;;;;;5110006;28;20763;-42
2021/11/15 02:47:40;;;;;;;26.38;17.85;;;9.50;99.90;;;;;;5109783;28;20023;-43
2021/11/15 02:50:11;;;;;;;22.00;16.77;;;9.50;99.90;;;;;;5109795;28;20047;-43
2021/11/15 02:52:36;;;;;;;25.88;18.17;;;9.50;99.90;;;;;;5110419;28;20114;-43
2021/11/15 02:55:03;;;;;;;31.80;20.92;;;9.50;99.90;;;;;;5109437;28;20157;-43
2021/11/15 02:57:28;;;;;;;24.92;18.48;;;9.40;99.90;;;;;;5110159;28;20025;-43
2021/11/15 02:59:54;;;;;;;22.90;17.30;;;9.40;99.90;;;;;;5110050;28;20031;-41
2021/11/15 03:02:23;;;;;;;26.92;19.40;;;9.40;99.90;;;;;;5109389;28;20038;-42
2021/11/15 03:04:49;;;;;;;24.88;19.35;;;9.40;99.90;;;;;;5110489;28;20024;-43
2021/11/15 03:07:15;;;;;;;26.40;18.13;;;9.40;99.90;;;;;;5110329;28;20035;-43
2021/11/15 03:09:43;;;;;;;30.08;22.27;;;9.40;99.90;;;;;;5109291;27;20470;-43
2021/11/15 03:12:09;;;;;;;28.30;19.42;;;9.40;99.90;;;;;;5110093;28;20019;-43
2021/11/15 03:14:35;;;;;;;25.55;18.55;;;9.40;99.90;;;;;;5109596;28;20030;-44
2021/11/15 03:17:02;;;;;;;25.33;17.85;;;9.40;99.90;;;;;;5108632;28;20032;-43
2021/11/15 03:19:27;;;;;;;25.83;18.35;;;9.40;99.90;;;;;;5110104;28;20592;-43
2021/11/15 03:21:56;;;;;;;27.77;19.45;;;9.40;99.90;;;;;;5109737;28;20027;-42
2021/11/15 03:24:22;;;;;;;27.73;19.73;;;9.40;99.90;;;;;;5108838;28;20374;-42
2021/11/15 03:26:47;;;;;;;25.58;18.13;;;9.40;99.90;;;;;;5109301;28;20030;-44
2021/11/15 03:29:13;;;;;;;27.25;17.98;;;9.30;99.90;;;;;;5109450;28;20031;-42
2021/11/15 03:31:50;;;;;;;26.08;18.70;;;9.40;99.90;;;;;;5108595;28;20514;-42
2021/11/15 03:34:16;;;;;;;28.92;20.25;;;9.40;99.90;;;;;;5109723;28;20073;-43
2021/11/15 03:36:43;;;;;;;27.48;19.65;;;9.30;99.90;;;;;;5109035;28;20107;-43
2021/11/15 03:39:11;;;;;;;29.90;21.10;;;9.30;99.90;;;;;;5108001;28;20035;-43
2021/11/15 03:41:39;;;;;;;26.55;19.88;;;9.30;99.90;;;;;;5109399;28;20095;-42
2021/11/15 03:44:06;;;;;;;26.00;18.75;;;9.30;99.90;;;;;;5108399;28;20031;-43
2021/11/15 03:46:33;;;;;;;26.23;18.65;;;9.30;99.90;;;;;;5109197;28;20020;-43
2021/11/15 03:48:59;;;;;;;25.88;17.92;;;9.30;99.90;;;;;;5109637;28;20027;-42
2021/11/15 03:51:25;;;;;;;30.00;19.98;;;9.30;99.90;;;;;;5108112;28;20035;-42
2021/11/15 03:53:51;;;;;;;27.55;18.55;;;9.30;99.90;;;;;;5109170;28;20016;-42
2021/11/15 03:56:23;;;;;;;27.85;19.50;;;9.30;99.90;;;;;;5109134;28;20485;-42
2021/11/15 03:58:49;;;;;;;27.63;19.42;;;9.30;99.90;;;;;;5107396;28;20024;-42
2021/11/15 04:01:15;;;;;;;28.88;20.98;;;9.30;99.90;;;;;;5109402;28;20024;-42
2021/11/15 04:03:44;;;;;;;32.22;20.85;;;9.30;99.90;;;;;;5108903;28;20065;-42
2021/11/15 04:06:22;;;;;;;27.90;19.80;;;9.30;99.90;;;;;;5107937;27;20431;-43
2021/11/15 04:08:48;;;;;;;25.52;18.92;;;9.30;99.90;;;;;;5108747;28;20035;-43
2021/11/15 04:11:13;;;;;;;28.85;20.58;;;9.30;99.90;;;;;;5109408;28;20027;-43
2021/11/15 04:13:42;;;;;;;29.33;20.60;;;9.40;99.90;;;;;;5107895;28;20043;-43
2021/11/15 04:16:11;;;;;;;28.75;20.02;;;9.40;99.90;;;;;;5107907;28;20055;-42
2021/11/15 04:18:42;;;;;;;28.83;20.65;;;9.40;99.90;;;;;;5108936;28;20019;-43
2021/11/15 04:21:09;;;;;;;32.53;22.10;;;9.30;99.90;;;;;;5107605;28;20499;-41
2021/11/15 04:23:35;;;;;;;32.35;21.80;;;9.30;99.90;;;;;;5108322;28;20076;-43
2021/11/15 04:26:01;;;;;;;29.08;21.58;;;9.30;99.90;;;;;;5108346;28;20041;-42
2021/11/15 04:28:27;;;;;;;31.05;21.20;;;9.30;99.90;;;;;;5107751;27;20023;-43
2021/11/15 04:30:53;;;;;;;31.73;22.45;;;9.30;99.90;;;;;;5108009;27;20403;-42
2021/11/15 04:33:18;;;;;;;36.60;24.70;;;9.30;99.90;;;;;;5107593;28;20022;-42
2021/11/15 04:35:44;;;;;;;35.05;23.90;;;9.30;99.90;;;;;;5108393;28;20020;-42
2021/11/15 04:38:10;;;;;;;33.55;24.25;;;9.20;99.90;;;;;;5107365;28;20098;-43
2021/11/15 04:40:38;;;;;;;39.15;25.42;;;9.20;99.90;;;;;;5106866;28;20526;-42
2021/11/15 04:43:04;;;;;;;30.92;22.75;;;9.20;99.90;;;;;;5108110;28;20023;-42
2021/11/15 04:45:30;;;;;;;32.75;23.73;;;9.20;99.90;;;;;;5104282;28;20035;-42
2021/11/15 04:47:56;;;;;;;34.45;23.35;;;9.20;99.90;;;;;;5107754;28;20023;-42
2021/11/15 04:50:22;;;;;;;35.45;24.23;;;9.10;99.90;;;;;;5107441;28;20032;-42
2021/11/15 04:52:48;;;;;;;30.02;21.52;;;9.20;99.90;;;;;;5107771;28;20140;-42
2021/11/15 04:55:16;;;;;;;30.05;21.45;;;9.20;99.90;;;;;;5107455;28;20066;-43
2021/11/15 04:57:42;;;;;;;30.63;21.25;;;9.20;99.90;;;;;;5107855;28;20028;-43
2021/11/15 05:00:14;;;;;;;31.48;21.08;;;9.20;99.90;;;;;;5107600;28;20426;-43
2021/11/15 05:02:40;;;;;;;31.33;22.33;;;9.20;99.90;;;;;;5107509;28;20015;-43
2021/11/15 05:05:06;;;;;;;30.45;21.23;;;9.20;99.90;;;;;;5107233;28;20105;-43
2021/11/15 05:07:32;;;;;;;34.20;22.38;;;9.20;99.90;;;;;;5107764;28;20031;-42
2021/11/15 05:09:58;;;;;;;31.08;22.02;;;9.20;99.90;;;;;;5106629;27;20514;-41
2021/11/15 05:12:24;;;;;;;32.80;22.23;;;9.20;99.90;;;;;;5107155;28;20424;-42
2021/11/15 05:14:49;;;;;;;30.63;21.23;;;9.20;99.90;;;;;;5107210;28;20055;-42
2021/11/15 05:17:15;;;;;;;32.90;22.23;;;9.20;99.90;;;;;;5106732;28;20016;-42
2021/11/15 05:19:42;;;;;;;34.90;22.90;;;9.20;99.90;;;;;;5107172;28;20393;-42
2021/11/15 05:22:08;;;;;;;34.42;23.30;;;9.10;99.90;;;;;;5107585;28;20028;-42
2021/11/15 05:24:34;;;;;;;33.60;22.27;;;9.20;99.90;;;;;;5106222;28;20024;-42
2021/11/15 05:26:59;;;;;;;32.15;22.30;;;9.10;99.90;;;;;;5107089;28;20012;-42
2021/11/15 05:29:25;;;;;;;32.15;23.00;;;9.10;99.90;;;;;;5106429;28;20036;-42
2021/11/15 05:31:50;;;;;;;33.10;22.90;;;9.10;99.90;;;;;;5107371;28;20034;-42
2021/11/15 05:34:16;;;;;;;29.48;20.42;;;9.10;99.90;;;;;;5107330;28;20498;-42
2021/11/15 05:36:41;;;;;;;29.65;21.20;;;9.10;99.90;;;;;;5106591;28;20700;-42
2021/11/15 05:39:07;;;;;;;34.30;23.85;;;9.10;99.90;;;;;;5106948;28;20054;-42
2021/11/15 05:41:32;;;;;;;31.42;21.35;;;9.10;99.90;;;;;;5106818;28;20035;-42
2021/11/15 05:43:58;;;;;;;32.22;22.25;;;9.10;99.90;;;;;;5106609;28;20028;-42
2021/11/15 05:46:23;;;;;;;30.33;21.95;;;9.10;99.90;;;;;;5106494;28;20034;-42
2021/11/15 05:48:49;;;;;;;28.15;19.92;;;9.10;99.90;;;;;;5106740;28;20024;-42
2021/11/15 05:51:14;;;;;;;27.50;19.58;;;9.20;99.90;;;;;;5106156;28;20019;-42
2021/11/15 05:53:42;;;;;;;30.48;20.20;;;9.20;99.90;;;;;;5107010;28;20031;-43
2021/11/15 05:56:08;;;;;;;27.38;19.45;;;9.20;99.90;;;;;;5106634;28;20027;-42
2021/11/15 05:58:34;;;;;;;28.63;19.80;;;9.20;99.90;;;;;;5106669;28;20023;-42
2021/11/15 06:01:00;;;;;;;30.40;20.52;;;9.20;99.90;;;;;;5106478;28;20443;-43
2021/11/15 06:03:27;;;;;;;30.65;20.90;;;9.20;99.90;;;;;;5106794;28;20130;-43
2021/11/15 06:05:53;;;;;;;30.42;20.50;;;9.20;99.90;;;;;;5106313;28;20063;-43
2021/11/15 06:08:18;;;;;;;24.10;17.02;;;9.30;99.90;;;;;;5106852;28;20583;-43
2021/11/15 06:10:44;;;;;;;28.02;19.23;;;9.30;99.90;;;;;;5107362;28;20042;-43
2021/11/15 06:13:10;;;;;;;23.42;16.52;;;9.20;99.90;;;;;;5105292;28;20047;-42
2021/11/15 06:15:36;;;;;;;27.90;19.25;;;9.20;99.90;;;;;;5106571;28;20451;-43
2021/11/15 06:18:02;;;;;;;27.13;18.55;;;9.20;99.90;;;;;;5106129;28;20051;-42
2021/11/15 06:20:27;;;;;;;25.80;18.40;;;9.20;99.90;;;;;;5106416;28;20028;-42
2021/11/15 06:22:53;;;;;;;26.98;17.30;;;9.20;99.90;;;;;;5106603;28;20107;-43
2021/11/15 06:25:19;;;;;;;29.38;19.75;;;9.10;99.90;;;;;;5106846;28;20695;-43
2021/11/15 06:27:45;;;;;;;25.20;17.63;;;9.10;99.90;;;;;;5105744;28;20023;-42
2021/11/15 06:30:14;;;;;;;28.20;18.80;;;9.10;99.90;;;;;;5106223;28;20098;-42
2021/11/15 06:32:40;;;;;;;25.15;16.75;;;9.10;99.90;;;;;;5105777;28;20023;-43
2021/11/15 06:35:06;;;;;;;27.08;18.10;;;9.10;99.90;;;;;;5106450;28;20032;-43
2021/11/15 06:37:32;;;;;;;30.08;19.98;;;9.10;99.90;;;;;;5106268;28;20066;-42
2021/11/15 06:39:57;;;;;;;27.33;18.15;;;9.00;99.90;;;;;;5106421;28;20073;-43
2021/11/15 06:42:23;;;;;;;26.75;16.70;;;9.10;99.90;;;;;;5106107;28;20034;-43
2021/11/15 06:44:49;;;;;;;26.08;17.45;;;9.10;99.90;;;;;;5106320;28;20023;-44
2021/11/15 06:47:14;;;;;;;25.70;16.90;;;9.10;99.90;;;;;;5105780;28;20027;-41
2021/11/15 06:49:40;;;;;;;28.67;19.30;;;9.10;99.90;;;;;;5106634;28;20482;-42
2021/11/15 06:52:07;;;;;;;27.17;18.17;;;9.00;99.90;;;;;;5117237;28;20027;-43
2021/11/15 06:54:33;;;;;;;26.50;17.85;;;9.00;99.90;;;;;;5105581;27;20043;-44
2021/11/15 06:56:59;;;;;;;25.35;17.05;;;9.00;99.90;;;;;;5105298;28;20031;-41
2021/11/15 06:59:24;;;;;;;27.33;16.95;;;9.00;99.90;;;;;;5105208;28;20486;-42
2021/11/15 07:01:50;;;;;;;25.25;17.67;;;9.10;99.90;;;;;;5103232;28;20020;-44
2021/11/15 07:04:16;;;;;;;23.17;16.52;;;9.10;99.90;;;;;;5109332;28;20470;-43
2021/11/15 07:06:43;;;;;;;24.95;16.80;;;9.10;99.90;;;;;;5109119;28;20084;-42
2021/11/15 07:09:10;;;;;;;24.73;17.55;;;9.10;99.90;;;;;;5108810;28;20028;-43
2021/11/15 07:11:36;;;;;;;27.80;17.48;;;9.10;99.90;;;;;;5109062;27;20028;-43
2021/11/15 07:14:06;;;;;;;28.33;17.83;;;9.10;99.90;;;;;;5108849;28;20011;-43
2021/11/15 07:16:31;;;;;;;28.02;19.20;;;9.00;99.90;;;;;;5108068;28;20090;-43
2021/11/15 07:18:57;;;;;;;27.85;17.33;;;9.00;99.90;;;;;;5107659;28;20467;-42
2021/11/15 07:21:23;;;;;;;24.77;16.63;;;9.00;99.90;;;;;;5108911;28;20418;-43
2021/11/15 07:23:49;;;;;;;23.80;16.65;;;9.00;99.90;;;;;;5108076;28;20438;-41
2021/11/15 07:26:15;;;;;;;22.40;14.95;;;9.00;99.90;;;;;;5108923;28;20517;-43
2021/11/15 07:28:42;;;;;;;26.75;17.92;;;9.00;99.90;;;;;;5108801;28;20016;-43
2021/11/15 07:31:08;;;;;;;25.08;15.95;;;9.00;99.90;;;;;;5107792;28;20035;-43
2021/11/15 07:33:34;;;;;;;25.50;16.52;;;9.00;99.90;;;;;;5107955;28;20020;-43
2021/11/15 07:35:59;;;;;;;25.08;16.80;;;9.00;99.90;;;;;;5108271;28;20033;-42
2021/11/15 07:38:25;;;;;;;24.15;15.68;;;9.10;99.90;;;;;;5110630;28;20032;-42
2021/11/15 07:40:51;;;;;;;26.65;17.55;;;9.10;99.90;;;;;;5109074;28;20375;-42
2021/11/15 07:43:17;;;;;;;23.40;15.82;;;9.00;99.90;;;;;;5108428;28;20777;-42
2021/11/15 07:45:43;;;;;;;25.33;16.67;;;9.00;99.90;;;;;;5108801;28;20027;-43
2021/11/15 07:48:09;;;;;;;26.63;16.70;;;9.00;99.90;;;;;;5109332;28;20035;-42
2021/11/15 07:50:35;;;;;;;25.77;16.98;;;8.90;99.90;;;;;;5108514;28;20046;-42
2021/11/15 07:53:02;;;;;;;24.40;16.08;;;8.90;99.90;;;;;;5109380;28;20076;-42
2021/11/15 07:55:27;;;;;;;27.10;16.90;;;8.90;99.90;;;;;;5108268;28;20043;-42
2021/11/15 07:57:55;;;;;;;24.90;16.75;;;8.90;99.90;;;;;;5108418;28;20027;-43
2021/11/15 08:00:23;;;;;;;23.17;15.48;;;8.80;99.90;;;;;;5108995;28;20459;-44
2021/11/15 08:02:49;;;;;;;26.80;16.27;;;8.80;99.90;;;;;;5109447;28;20035;-46
2021/11/15 08:05:17;;;;;;;23.70;15.55;;;8.80;99.90;;;;;;5108205;28;20015;-44
2021/11/15 08:07:43;;;;;;;24.48;15.70;;;8.90;99.90;;;;;;5097260;28;20766;-44
2021/11/15 08:10:11;;;;;;;25.13;16.40;;;8.90;99.90;;;;;;5107927;28;20123;-44
2021/11/15 08:12:39;;;;;;;22.90;15.20;;;8.90;99.90;;;;;;5106047;28;20020;-43
2021/11/15 08:15:08;;;;;;;24.65;16.08;;;8.90;99.90;;;;;;5107963;28;20052;-43
2021/11/15 08:17:37;;;;;;;27.17;18.23;;;8.90;99.90;;;;;;5108148;27;20055;-43
2021/11/15 08:20:05;;;;;;;29.80;20.58;;;8.90;99.90;;;;;;5107212;28;20028;-43
2021/11/15 08:22:32;;;;;;;27.00;18.85;;;8.80;99.90;;;;;;5107982;28;20020;-44
2021/11/15 08:25:00;;;;;;;28.08;18.45;;;8.80;99.90;;;;;;5108351;28;20032;-41
2021/11/15 08:27:27;;;;;;;28.45;18.83;;;8.80;99.90;;;;;;5105614;28;21227;-42
2021/11/15 08:29:55;;;;;;;28.63;18.05;;;8.80;99.90;;;;;;5106709;28;20126;-42
2021/11/15 08:32:24;;;;;;;25.60;16.60;;;8.80;99.90;;;;;;5107219;28;20024;-43
2021/11/15 08:34:51;;;;;;;27.92;18.45;;;8.80;99.90;;;;;;5108672;28;20348;-43
2021/11/15 08:37:17;;;;;;;27.60;17.67;;;8.80;99.90;;;;;;5108005;28;20028;-42
2021/11/15 08:39:43;;;;;;;27.60;17.17;;;8.80;99.90;;;;;;5107398;28;20035;-42
2021/11/15 08:42:09;;;;;;;24.17;16.17;;;8.80;99.90;;;;;;5108480;28;20769;-42
2021/11/15 08:44:40;;;;;;;25.15;16.50;;;8.80;99.90;;;;;;5107687;28;20352;-43
2021/11/15 08:47:06;;;;;;;23.38;15.70;;;8.80;99.90;;;;;;5107376;28;20386;-43
2021/11/15 08:49:33;;;;;;;20.75;14.57;;;8.90;99.90;;;;;;5107683;28;20036;-43
2021/11/15 08:52:00;;;;;;;20.50;12.80;;;8.90;99.90;;;;;;5106470;28;20081;-42
2021/11/15 08:54:26;;;;;;;21.50;14.32;;;8.90;99.90;;;;;;5107523;28;20042;-42
2021/11/15 08:56:58;;;;;;;21.08;14.07;;;8.90;99.90;;;;;;5107361;28;20031;-43
2021/11/15 08:59:24;;;;;;;23.75;15.27;;;8.90;99.90;;;;;;5107327;28;20031;-43
2021/11/15 09:01:51;;;;;;;22.77;15.70;;;8.90;99.90;;;;;;5107431;28;20019;-43
2021/11/15 09:04:17;;;;;;;26.23;16.08;;;8.90;99.90;;;;;;5107827;28;20466;-43
2021/11/15 09:06:44;;;;;;;22.30;14.45;;;8.90;99.90;;;;;;5107850;28;20039;-43
2021/11/15 09:09:15;;;;;;;24.67;15.18;;;8.90;99.90;;;;;;5106579;28;20101;-44
2021/11/15 09:11:42;;;;;;;28.00;16.85;;;8.90;99.90;;;;;;5107952;28;20032;-43
2021/11/15 09:14:08;;;;;;;23.48;15.07;;;8.90;99.90;;;;;;5107337;28;20276;-43
2021/11/15 09:16:33;;;;;;;26.05;17.02;;;8.80;99.90;;;;;;5106600;28;20635;-42
2021/11/15 09:18:59;;;;;;;24.02;15.15;;;8.80;99.90;;;;;;5107340;28;20484;-42
2021/11/15 09:21:24;;;;;;;27.38;16.63;;;8.80;99.90;;;;;;5106437;28;20078;-43
2021/11/15 09:23:51;;;;;;;26.52;17.67;;;8.80;99.90;;;;;;5107665;28;20040;-44
2021/11/15 09:26:18;;;;;;;24.90;17.08;;;8.70;99.90;;;;;;5107245;28;20038;-42
2021/11/15 09:28:44;;;;;;;30.05;18.85;;;8.70;99.90;;;;;;5104168;28;20081;-43
2021/11/15 09:31:11;;;;;;;29.10;17.63;;;8.70;99.90;;;;;;5106855;28;20039;-43
2021/11/15 09:33:37;;;;;;;29.05;18.05;;;8.70;99.90;;;;;;5106259;28;20026;-43
2021/11/15 09:36:03;;;;;;;25.17;15.50;;;8.70;99.90;;;;;;5106278;28;20023;-43
2021/11/15 09:38:29;;;;;;;24.50;16.42;;;8.60;99.90;;;;;;5113420;27;20379;-43
2021/11/15 09:40:58;;;;;;;24.80;14.75;;;8.50;99.90;;;;;;5107054;28;20026;-43
2021/11/15 09:43:34;;;;;;;22.00;13.90;;;8.50;99.90;;;;;;5106118;28;20475;-43
2021/11/15 09:46:05;;;;;;;20.42;13.65;;;8.50;99.90;;;;;;5106594;28;20027;-42
2021/11/15 09:48:36;;;;;;;21.40;12.80;;;8.50;99.90;;;;;;5110078;28;20042;-43
2021/11/15 09:51:03;;;;;;;17.80;11.57;;;8.50;99.90;;;;;;5106684;28;20032;-43
2021/11/15 09:53:29;;;;;;;18.83;11.73;;;8.50;99.90;;;;;;5107330;28;20064;-43
2021/11/15 09:55:55;;;;;;;19.00;11.35;;;8.50;99.90;;;;;;5106795;28;20019;-43
2021/11/15 09:58:22;;;;;;;19.20;11.05;;;8.50;99.90;;;;;;5106773;28;20027;-44
2021/11/15 10:00:48;;;;;;;17.73;10.65;;;8.50;99.90;;;;;;5106817;28;20034;-42
2021/11/15 10:03:13;;;;;;;15.43;10.15;;;8.50;99.90;;;;;;5110602;28;20019;-44
2021/11/15 10:05:39;;;;;;;14.32;9.48;;;8.50;99.90;;;;;;5107391;28;20035;-43
2021/11/15 10:08:09;;;;;;;15.80;10.05;;;8.50;99.90;;;;;;5106841;28;20508;-43
2021/11/15 10:10:55;;;;;;;15.05;9.95;;;8.50;99.90;;;;;;5106674;28;20024;-42
2021/11/15 10:13:25;;;;;;;15.38;9.32;;;8.50;99.90;;;;;;5086939;28;20109;-42
2021/11/15 10:15:53;;;;;;;19.42;11.50;;;8.50;99.90;;;;;;5102108;28;20077;-42
2021/11/15 10:18:41;;;;;;;21.13;12.30;;;8.40;99.90;;;;;;5065962;28;20064;-42
2021/11/15 10:21:16;;;;;;;21.42;12.48;;;8.40;99.90;;;;;;5057532;28;20040;-42
2021/11/15 10:24:16;;;;;;;23.42;13.40;;;8.40;99.90;;;;;;5045388;28;20467;-45
2021/11/15 10:26:51;;;;;;;23.10;13.80;;;8.30;99.90;;;;;;5062028;28;20052;-43
2021/11/15 10:29:34;;;;;;;22.08;12.88;;;8.30;99.90;;;;;;5051257;28;20040;-43
2021/11/15 10:32:12;;;;;;;20.67;12.32;;;8.30;99.90;;;;;;5063950;28;20051;-42
2021/11/15 10:34:43;;;;;;;20.10;12.25;;;8.30;99.90;;;;;;5065505;28;20040;-43
2021/11/15 10:37:18;;;;;;;19.73;11.45;;;8.30;99.90;;;;;;5059456;28;20033;-42
2021/11/15 10:39:48;;;;;;;19.00;11.52;;;8.30;99.90;;;;;;5059971;28;20055;-42
2021/11/15 10:42:19;;;;;;;16.58;10.40;;;8.30;99.90;;;;;;5069390;28;20024;-42
2021/11/15 10:44:50;;;;;;;19.20;10.75;;;8.40;99.90;;;;;;5069563;28;20033;-43
2021/11/15 10:47:17;;;;;;;16.30;9.65;;;8.40;99.90;;;;;;5062762;28;20066;-42
2021/11/15 10:49:44;;;;;;;22.13;12.38;;;8.40;99.90;;;;;;5060483;28;20503;-42
2021/11/15 10:52:13;;;;;;;27.30;14.30;;;8.40;99.90;;;;;;5068956;28;20017;-43
2021/11/15 10:54:54;;;;;;;25.92;14.32;;;8.30;99.90;;;;;;5048990;28;20029;-43
2021/11/15 10:57:37;;;;;;;24.33;13.95;;;8.30;99.90;;;;;;5061986;28;20040;-42
2021/11/15 11:00:11;;;;;;;22.40;13.40;;;8.30;99.90;;;;;;5042722;28;20028;-43
2021/11/15 11:02:40;;;;;;;21.73;12.93;;;8.40;99.90;;;;;;5066338;28;20029;-43
2021/11/15 11:05:12;;;;;;;24.55;14.20;;;8.30;99.90;;;;;;5069344;28;20029;-42
2021/11/15 11:07:44;;;;;;;21.08;12.70;;;8.30;99.90;;;;;;5057165;28;20177;-43
2021/11/15 11:10:11;;;;;;;19.83;12.60;;;8.30;99.90;;;;;;5044936;28;20041;-43
2021/11/15 11:12:44;;;;;;;21.65;13.18;;;8.30;99.90;;;;;;5063014;28;20029;-42
2021/11/15 11:15:25;;;;;;;23.75;13.43;;;8.30;99.90;;;;;;5068283;28;20060;-42
2021/11/15 11:18:11;;;;;;;22.73;12.07;;;8.30;99.90;;;;;;5058027;28;20029;-42
2021/11/15 11:21:11;;;;;;;21.17;11.73;;;8.30;99.90;;;;;;5049061;28;20505;-41
2021/11/15 11:23:56;;;;;;;20.02;11.77;;;8.30;99.90;;;;;;5067049;28;20499;-43
2021/11/15 11:26:23;;;;;;;22.83;13.70;;;8.20;99.90;;;;;;5047599;28;20064;-43
2021/11/15 11:28:54;;;;;;;23.08;14.50;;;8.30;99.90;;;;;;5052724;28;20040;-43
2021/11/15 11:31:20;;;;;;;25.70;14.40;;;8.30;99.90;;;;;;5069262;28;20036;-43
2021/11/15 11:33:46;;;;;;;26.23;15.27;;;8.30;99.90;;;;;;5067794;28;20500;-41
2021/11/15 11:36:12;;;;;;;24.80;15.00;;;8.30;99.90;;;;;;5067663;28;20024;-43
2021/11/15 11:38:40;;;;;;;23.33;14.23;;;8.30;99.90;;;;;;5053339;28;20021;-43
2021/11/15 11:41:06;;;;;;;26.73;15.27;;;8.30;99.90;;;;;;5066451;28;20016;-42
2021/11/15 11:43:32;;;;;;;26.70;14.18;;;8.30;99.90;;;;;;5064467;28;20606;-43
2021/11/15 11:46:01;;;;;;;22.30;13.35;;;8.30;99.90;;;;;;5065697;28;20051;-43
2021/11/15 11:48:27;;;;;;;22.95;14.32;;;8.30;99.90;;;;;;5050077;28;20826;-42
2021/11/15 11:50:55;;;;;;;24.80;14.10;;;8.30;99.90;;;;;;5067114;28;20400;-43
2021/11/15 11:53:29;;;;;;;22.48;13.05;;;8.30;99.90;;;;;;5059480;28;20028;-43
2021/11/15 11:56:00;;;;;;;21.08;12.45;;;8.20;99.90;;;;;;5067360;28;20036;-42
2021/11/15 11:58:32;;;;;;;21.17;12.98;;;8.30;99.90;;;;;;5051734;28;20299;-42
2021/11/15 12:01:04;;;;;;;18.13;11.13;;;8.30;99.90;;;;;;5067662;28;20119;-43
2021/11/15 12:03:31;;;;;;;21.75;12.30;;;8.30;99.90;;;;;;5066931;28;20265;-43
2021/11/15 12:06:02;;;;;;;20.40;12.23;;;8.40;99.90;;;;;;5067174;28;20024;-44
2021/11/15 12:08:59;;;;;;;20.02;11.38;;;8.40;99.90;;;;;;5053036;28;20021;-43
2021/11/15 12:11:29;;;;;;;19.52;11.68;;;8.40;99.90;;;;;;5067063;28;20033;-43
2021/11/15 12:13:56;;;;;;;18.25;10.60;;;8.40;99.90;;;;;;5066760;28;20012;-42
2021/11/15 12:16:22;;;;;;;19.45;11.10;;;8.40;99.90;;;;;;5067265;28;20060;-42
2021/11/15 12:18:57;;;;;;;17.70;10.75;;;8.40;99.90;;;;;;5051739;28;20051;-43
2021/11/15 12:21:23;;;;;;;16.17;9.82;;;8.40;99.90;;;;;;5068000;28;20039;-43
2021/11/15 12:23:51;;;;;;;15.68;10.32;;;8.40;99.90;;;;;;5067249;28;20036;-44
2021/11/15 12:26:25;;;;;;;20.25;10.82;;;8.40;99.90;;;;;;5066592;28;20071;-43
2021/11/15 12:28:53;;;;;;;20.48;12.32;;;8.40;99.90;;;;;;5051703;28;20782;-43
2021/11/15 12:31:37;;;;;;;17.90;12.55;;;8.40;99.90;;;;;;5067178;28;20086;-43
2021/11/15 12:34:04;;;;;;;20.35;12.98;;;8.40;99.90;;;;;;5066789;28;20067;-42
2021/11/15 12:36:39;;;;;;;19.45;12.20;;;8.40;99.90;;;;;;5066696;28;20048;-42
2021/11/15 12:39:11;;;;;;;19.88;12.07;;;8.40;99.90;;;;;;5051578;28;20098;-43